Terminal Aerodrome Forecast
Issued by NWS

Home | Current Version | Previous Version | Text Only | Print | Product List | Glossary On
Versions: 1 2 3 4 5 6 7 8 9 10 11 12 13 14 15 16 17 18 19 20 21 22 23 24 25 26 27 28 29 30 31 32 33 34 35 36 37
000
FTUS45 KSLC 080529
TAFEVW
TAF
KEVW 080529Z 0806/0906 15006KT P6SM SCT060 BKN150
     FM081600 11006KT P6SM SCT040 BKN080
     FM082000 22008KT P6SM VCSH SCT020 BKN040
     FM090000 22010KT 1SM -SN BR SCT007 BKN015=

USA.gov is the U.S. government's official web portal to all federal, state and local government web resources and services.